Terminal Aerodrome Forecast
Issued by NWS

Current Version | Previous Version | Text Only | Print | Product List | Glossary On
Versions: 1 2 3 4 5 6 7 8 9 10 11 12 13 14 15 16 17 18 19 20
000 FTUS41 KGYX 260935 AAA TAFPSM TAF AMD KPSM 260935Z 2610/2706 VRB04KT P6SM OVC150 FM261500 02008KT 6SM -RASN OVC030 FM261800 02012G22KT 1/2SM SNRA FG OVC005 FM262200 01016G28KT 1/2SM SN FG OVC004 FM270200 36018G28KT 2SM -SN BR OVC006=

USA.gov is the U.S. government's official web portal to all federal, state and local government web resources and services.